sensor_id;sensor_type;location;lat;lon;timestamp;P1;durP1;ratioP1;P2;durP2;ratioP2
67372;SDS011;54257;54.496;18.412;2022-08-19T00:00:41;10.40;;;9.40;;
67372;SDS011;54257;54.496;18.412;2022-08-19T00:03:09;9.50;;;8.60;;
67372;SDS011;54257;54.496;18.412;2022-08-19T00:05:37;9.10;;;8.30;;
67372;SDS011;54257;54.496;18.412;2022-08-19T00:08:08;10.30;;;9.30;;
67372;SDS011;54257;54.496;18.412;2022-08-19T00:10:35;9.80;;;8.90;;
67372;SDS011;54257;54.496;18.412;2022-08-19T00:13:03;9.90;;;8.70;;
67372;SDS011;54257;54.496;18.412;2022-08-19T00:15:31;9.00;;;8.20;;
67372;SDS011;54257;54.496;18.412;2022-08-19T00:17:58;9.10;;;8.20;;
67372;SDS011;54257;54.496;18.412;2022-08-19T00:20:26;9.40;;;8.50;;
67372;SDS011;54257;54.496;18.412;2022-08-19T00:22:53;10.40;;;8.30;;
67372;SDS011;54257;54.496;18.412;2022-08-19T00:25:22;9.40;;;8.30;;
67372;SDS011;54257;54.496;18.412;2022-08-19T00:27:52;9.70;;;8.80;;
67372;SDS011;54257;54.496;18.412;2022-08-19T00:30:23;10.20;;;9.20;;
67372;SDS011;54257;54.496;18.412;2022-08-19T00:32:51;9.60;;;8.70;;
67372;SDS011;54257;54.496;18.412;2022-08-19T00:35:19;9.70;;;8.80;;
67372;SDS011;54257;54.496;18.412;2022-08-19T00:37:47;10.20;;;9.30;;
67372;SDS011;54257;54.496;18.412;2022-08-19T00:40:16;9.30;;;8.40;;
67372;SDS011;54257;54.496;18.412;2022-08-19T00:42:45;9.30;;;8.30;;
67372;SDS011;54257;54.496;18.412;2022-08-19T00:45:15;10.20;;;7.70;;
67372;SDS011;54257;54.496;18.412;2022-08-19T00:47:47;9.10;;;8.20;;
67372;SDS011;54257;54.496;18.412;2022-08-19T00:50:16;9.70;;;8.70;;
67372;SDS011;54257;54.496;18.412;2022-08-19T00:52:47;10.60;;;9.40;;
67372;SDS011;54257;54.496;18.412;2022-08-19T00:55:20;9.10;;;8.40;;
67372;SDS011;54257;54.496;18.412;2022-08-19T00:57:53;9.50;;;8.50;;
67372;SDS011;54257;54.496;18.412;2022-08-19T01:00:28;9.20;;;8.30;;
67372;SDS011;54257;54.496;18.412;2022-08-19T01:02:57;14.20;;;10.00;;
67372;SDS011;54257;54.496;18.412;2022-08-19T01:05:26;10.50;;;9.60;;
67372;SDS011;54257;54.496;18.412;2022-08-19T01:07:56;9.30;;;8.40;;
67372;SDS011;54257;54.496;18.412;2022-08-19T01:10:26;10.80;;;8.90;;
67372;SDS011;54257;54.496;18.412;2022-08-19T01:12:57;9.60;;;8.70;;
67372;SDS011;54257;54.496;18.412;2022-08-19T01:15:29;9.50;;;8.70;;
67372;SDS011;54257;54.496;18.412;2022-08-19T01:18:06;10.60;;;9.60;;
67372;SDS011;54257;54.496;18.412;2022-08-19T01:20:40;10.70;;;9.80;;
67372;SDS011;54257;54.496;18.412;2022-08-19T01:23:12;11.60;;;9.90;;
67372;SDS011;54257;54.496;18.412;2022-08-19T01:28:18;13.10;;;9.40;;
67372;SDS011;54257;54.496;18.412;2022-08-19T01:30:48;10.80;;;9.50;;
67372;SDS011;54257;54.496;18.412;2022-08-19T01:33:17;12.60;;;9.30;;
67372;SDS011;54257;54.496;18.412;2022-08-19T01:35:47;11.10;;;9.90;;
67372;SDS011;54257;54.496;18.412;2022-08-19T01:38:22;10.70;;;9.60;;
67372;SDS011;54257;54.496;18.412;2022-08-19T01:40:53;11.00;;;10.00;;
67372;SDS011;54257;54.496;18.412;2022-08-19T01:43:21;11.40;;;10.30;;
67372;SDS011;54257;54.496;18.412;2022-08-19T01:45:49;11.40;;;10.30;;
67372;SDS011;54257;54.496;18.412;2022-08-19T01:48:17;11.60;;;10.00;;
67372;SDS011;54257;54.496;18.412;2022-08-19T01:50:46;11.40;;;10.30;;
67372;SDS011;54257;54.496;18.412;2022-08-19T01:53:15;16.00;;;11.20;;
67372;SDS011;54257;54.496;18.412;2022-08-19T01:55:44;11.30;;;10.10;;
67372;SDS011;54257;54.496;18.412;2022-08-19T01:58:16;12.30;;;11.00;;
67372;SDS011;54257;54.496;18.412;2022-08-19T02:00:47;16.50;;;11.40;;
67372;SDS011;54257;54.496;18.412;2022-08-19T02:03:21;10.70;;;9.70;;
67372;SDS011;54257;54.496;18.412;2022-08-19T02:05:53;11.80;;;10.20;;
67372;SDS011;54257;54.496;18.412;2022-08-19T02:08:23;13.10;;;11.10;;
67372;SDS011;54257;54.496;18.412;2022-08-19T02:10:51;13.20;;;11.30;;
67372;SDS011;54257;54.496;18.412;2022-08-19T02:13:19;11.80;;;10.70;;
67372;SDS011;54257;54.496;18.412;2022-08-19T02:15:48;11.60;;;10.20;;
67372;SDS011;54257;54.496;18.412;2022-08-19T02:18:16;11.00;;;9.90;;
67372;SDS011;54257;54.496;18.412;2022-08-19T02:20:44;11.40;;;10.30;;
67372;SDS011;54257;54.496;18.412;2022-08-19T02:23:15;13.50;;;11.70;;
67372;SDS011;54257;54.496;18.412;2022-08-19T02:25:45;12.30;;;11.20;;
67372;SDS011;54257;54.496;18.412;2022-08-19T02:28:15;12.00;;;10.90;;
67372;SDS011;54257;54.496;18.412;2022-08-19T02:30:43;12.20;;;11.10;;
67372;SDS011;54257;54.496;18.412;2022-08-19T02:33:14;13.10;;;11.80;;
67372;SDS011;54257;54.496;18.412;2022-08-19T02:35:45;13.90;;;12.60;;
67372;SDS011;54257;54.496;18.412;2022-08-19T02:38:14;13.50;;;12.20;;
67372;SDS011;54257;54.496;18.412;2022-08-19T02:40:55;12.10;;;10.90;;
67372;SDS011;54257;54.496;18.412;2022-08-19T02:43:27;11.20;;;10.10;;
67372;SDS011;54257;54.496;18.412;2022-08-19T02:45:57;11.60;;;10.30;;
67372;SDS011;54257;54.496;18.412;2022-08-19T02:48:25;11.00;;;10.00;;
67372;SDS011;54257;54.496;18.412;2022-08-19T02:50:53;12.60;;;10.50;;
67372;SDS011;54257;54.496;18.412;2022-08-19T02:53:25;10.80;;;9.70;;
67372;SDS011;54257;54.496;18.412;2022-08-19T02:55:54;11.80;;;9.70;;
67372;SDS011;54257;54.496;18.412;2022-08-19T02:58:22;12.00;;;10.70;;
67372;SDS011;54257;54.496;18.412;2022-08-19T03:00:52;14.30;;;12.00;;
67372;SDS011;54257;54.496;18.412;2022-08-19T03:03:22;14.80;;;11.00;;
67372;SDS011;54257;54.496;18.412;2022-08-19T03:05:50;13.20;;;11.30;;
67372;SDS011;54257;54.496;18.412;2022-08-19T03:08:18;11.40;;;10.30;;
67372;SDS011;54257;54.496;18.412;2022-08-19T03:10:47;10.80;;;9.80;;
67372;SDS011;54257;54.496;18.412;2022-08-19T03:13:16;12.30;;;11.10;;
67372;SDS011;54257;54.496;18.412;2022-08-19T03:15:53;15.70;;;10.90;;
67372;SDS011;54257;54.496;18.412;2022-08-19T03:18:21;12.70;;;11.20;;
67372;SDS011;54257;54.496;18.412;2022-08-19T03:20:52;22.20;;;12.40;;
67372;SDS011;54257;54.496;18.412;2022-08-19T03:23:22;15.30;;;11.30;;
67372;SDS011;54257;54.496;18.412;2022-08-19T03:25:51;12.00;;;10.80;;
67372;SDS011;54257;54.496;18.412;2022-08-19T03:28:21;11.80;;;10.30;;
67372;SDS011;54257;54.496;18.412;2022-08-19T03:30:57;13.80;;;10.30;;
67372;SDS011;54257;54.496;18.412;2022-08-19T03:33:37;14.40;;;11.30;;
67372;SDS011;54257;54.496;18.412;2022-08-19T03:38:40;11.80;;;9.90;;
67372;SDS011;54257;54.496;18.412;2022-08-19T03:41:12;11.20;;;9.90;;
67372;SDS011;54257;54.496;18.412;2022-08-19T03:43:45;11.20;;;10.20;;
67372;SDS011;54257;54.496;18.412;2022-08-19T03:46:24;12.20;;;10.60;;
67372;SDS011;54257;54.496;18.412;2022-08-19T03:48:57;12.00;;;10.40;;
67372;SDS011;54257;54.496;18.412;2022-08-19T03:51:28;13.00;;;11.50;;
67372;SDS011;54257;54.496;18.412;2022-08-19T03:54:00;14.80;;;12.00;;
67372;SDS011;54257;54.496;18.412;2022-08-19T03:56:30;13.40;;;12.10;;
67372;SDS011;54257;54.496;18.412;2022-08-19T03:58:58;13.20;;;11.80;;
67372;SDS011;54257;54.496;18.412;2022-08-19T04:01:27;13.20;;;12.00;;
67372;SDS011;54257;54.496;18.412;2022-08-19T04:03:56;13.00;;;11.70;;
67372;SDS011;54257;54.496;18.412;2022-08-19T04:06:26;12.50;;;11.40;;
67372;SDS011;54257;54.496;18.412;2022-08-19T04:08:57;12.90;;;11.70;;
67372;SDS011;54257;54.496;18.412;2022-08-19T04:11:33;12.60;;;11.20;;
67372;SDS011;54257;54.496;18.412;2022-08-19T04:14:03;13.30;;;11.70;;
67372;SDS011;54257;54.496;18.412;2022-08-19T04:16:42;12.40;;;11.10;;
67372;SDS011;54257;54.496;18.412;2022-08-19T04:19:11;11.90;;;10.70;;
67372;SDS011;54257;54.496;18.412;2022-08-19T04:21:42;11.90;;;10.20;;
67372;SDS011;54257;54.496;18.412;2022-08-19T04:24:12;11.10;;;9.80;;
67372;SDS011;54257;54.496;18.412;2022-08-19T04:26:41;14.20;;;11.60;;
67372;SDS011;54257;54.496;18.412;2022-08-19T04:29:11;15.80;;;11.30;;
67372;SDS011;54257;54.496;18.412;2022-08-19T04:31:45;12.30;;;11.10;;
67372;SDS011;54257;54.496;18.412;2022-08-19T04:34:15;12.80;;;11.30;;
67372;SDS011;54257;54.496;18.412;2022-08-19T04:36:44;14.90;;;12.10;;
67372;SDS011;54257;54.496;18.412;2022-08-19T04:39:16;13.70;;;11.60;;
67372;SDS011;54257;54.496;18.412;2022-08-19T04:41:47;16.40;;;11.80;;
67372;SDS011;54257;54.496;18.412;2022-08-19T04:44:34;12.70;;;11.60;;
67372;SDS011;54257;54.496;18.412;2022-08-19T04:47:03;13.00;;;11.70;;
67372;SDS011;54257;54.496;18.412;2022-08-19T04:49:33;15.40;;;10.10;;
67372;SDS011;54257;54.496;18.412;2022-08-19T04:52:01;12.70;;;11.60;;
67372;SDS011;54257;54.496;18.412;2022-08-19T04:54:29;17.20;;;11.40;;
67372;SDS011;54257;54.496;18.412;2022-08-19T04:56:57;17.10;;;11.40;;
67372;SDS011;54257;54.496;18.412;2022-08-19T04:59:25;23.30;;;13.80;;
67372;SDS011;54257;54.496;18.412;2022-08-19T05:01:52;17.10;;;12.70;;
67372;SDS011;54257;54.496;18.412;2022-08-19T05:04:20;16.00;;;12.40;;
67372;SDS011;54257;54.496;18.412;2022-08-19T05:06:52;15.00;;;12.20;;
67372;SDS011;54257;54.496;18.412;2022-08-19T05:09:20;12.70;;;11.40;;
67372;SDS011;54257;54.496;18.412;2022-08-19T05:11:49;13.00;;;11.50;;
67372;SDS011;54257;54.496;18.412;2022-08-19T05:14:20;14.70;;;11.50;;
67372;SDS011;54257;54.496;18.412;2022-08-19T05:16:49;16.10;;;11.80;;
67372;SDS011;54257;54.496;18.412;2022-08-19T05:19:17;19.30;;;12.70;;
67372;SDS011;54257;54.496;18.412;2022-08-19T05:22:04;15.60;;;14.00;;
67372;SDS011;54257;54.496;18.412;2022-08-19T05:24:55;15.00;;;13.50;;
67372;SDS011;54257;54.496;18.412;2022-08-19T05:27:24;16.50;;;13.90;;
67372;SDS011;54257;54.496;18.412;2022-08-19T05:29:52;15.70;;;13.30;;
67372;SDS011;54257;54.496;18.412;2022-08-19T05:32:20;13.50;;;11.80;;
67372;SDS011;54257;54.496;18.412;2022-08-19T05:34:51;14.00;;;12.20;;
67372;SDS011;54257;54.496;18.412;2022-08-19T05:37:20;13.50;;;12.10;;
67372;SDS011;54257;54.496;18.412;2022-08-19T05:39:54;13.60;;;11.80;;
67372;SDS011;54257;54.496;18.412;2022-08-19T05:42:23;13.40;;;12.10;;
67372;SDS011;54257;54.496;18.412;2022-08-19T05:44:52;13.70;;;12.20;;
67372;SDS011;54257;54.496;18.412;2022-08-19T05:47:22;15.50;;;12.90;;
67372;SDS011;54257;54.496;18.412;2022-08-19T05:49:53;13.50;;;12.20;;
67372;SDS011;54257;54.496;18.412;2022-08-19T05:52:21;13.80;;;12.50;;
67372;SDS011;54257;54.496;18.412;2022-08-19T05:54:50;12.70;;;11.30;;
67372;SDS011;54257;54.496;18.412;2022-08-19T05:57:19;12.90;;;11.10;;
67372;SDS011;54257;54.496;18.412;2022-08-19T05:59:47;20.80;;;12.00;;
67372;SDS011;54257;54.496;18.412;2022-08-19T06:02:18;17.00;;;11.10;;
67372;SDS011;54257;54.496;18.412;2022-08-19T06:04:46;12.90;;;11.50;;
67372;SDS011;54257;54.496;18.412;2022-08-19T06:07:14;14.20;;;10.20;;
67372;SDS011;54257;54.496;18.412;2022-08-19T06:09:47;14.10;;;11.90;;
67372;SDS011;54257;54.496;18.412;2022-08-19T06:12:15;15.30;;;11.30;;
67372;SDS011;54257;54.496;18.412;2022-08-19T06:14:43;11.60;;;9.70;;
67372;SDS011;54257;54.496;18.412;2022-08-19T06:17:11;10.40;;;9.40;;
67372;SDS011;54257;54.496;18.412;2022-08-19T06:19:41;12.20;;;9.70;;
67372;SDS011;54257;54.496;18.412;2022-08-19T06:22:14;13.00;;;10.10;;
67372;SDS011;54257;54.496;18.412;2022-08-19T06:24:41;12.70;;;10.90;;
67372;SDS011;54257;54.496;18.412;2022-08-19T06:27:09;10.40;;;9.10;;
67372;SDS011;54257;54.496;18.412;2022-08-19T06:29:37;13.30;;;10.10;;
67372;SDS011;54257;54.496;18.412;2022-08-19T06:32:07;13.00;;;10.00;;
67372;SDS011;54257;54.496;18.412;2022-08-19T06:34:38;17.00;;;9.00;;
67372;SDS011;54257;54.496;18.412;2022-08-19T06:37:27;14.40;;;8.50;;
67372;SDS011;54257;54.496;18.412;2022-08-19T06:40:14;13.00;;;9.40;;
67372;SDS011;54257;54.496;18.412;2022-08-19T06:43:03;10.40;;;9.30;;
67372;SDS011;54257;54.496;18.412;2022-08-19T06:45:51;11.50;;;8.70;;
67372;SDS011;54257;54.496;18.412;2022-08-19T06:48:39;12.40;;;8.60;;
67372;SDS011;54257;54.496;18.412;2022-08-19T06:51:29;9.50;;;8.50;;
67372;SDS011;54257;54.496;18.412;2022-08-19T06:54:19;10.50;;;8.50;;
67372;SDS011;54257;54.496;18.412;2022-08-19T06:57:07;10.40;;;8.70;;
67372;SDS011;54257;54.496;18.412;2022-08-19T07:00:01;10.50;;;8.90;;
67372;SDS011;54257;54.496;18.412;2022-08-19T07:02:51;9.60;;;8.40;;
67372;SDS011;54257;54.496;18.412;2022-08-19T07:05:41;10.90;;;8.30;;
67372;SDS011;54257;54.496;18.412;2022-08-19T07:08:30;14.90;;;8.10;;
67372;SDS011;54257;54.496;18.412;2022-08-19T07:11:18;12.20;;;8.50;;
67372;SDS011;54257;54.496;18.412;2022-08-19T07:14:07;9.50;;;8.20;;
67372;SDS011;54257;54.496;18.412;2022-08-19T07:16:55;10.70;;;8.20;;
67372;SDS011;54257;54.496;18.412;2022-08-19T07:19:44;9.80;;;8.70;;
67372;SDS011;54257;54.496;18.412;2022-08-19T07:22:34;9.20;;;8.10;;
67372;SDS011;54257;54.496;18.412;2022-08-19T07:25:22;9.20;;;7.80;;
67372;SDS011;54257;54.496;18.412;2022-08-19T07:28:10;9.50;;;8.40;;
67372;SDS011;54257;54.496;18.412;2022-08-19T07:30:59;9.10;;;8.00;;
67372;SDS011;54257;54.496;18.412;2022-08-19T07:33:50;9.60;;;7.00;;
67372;SDS011;54257;54.496;18.412;2022-08-19T07:36:42;9.60;;;7.90;;
67372;SDS011;54257;54.496;18.412;2022-08-19T07:39:32;9.60;;;7.40;;
67372;SDS011;54257;54.496;18.412;2022-08-19T07:42:23;12.30;;;7.60;;
67372;SDS011;54257;54.496;18.412;2022-08-19T07:45:11;8.70;;;7.40;;
67372;SDS011;54257;54.496;18.412;2022-08-19T07:48:00;8.90;;;7.00;;
67372;SDS011;54257;54.496;18.412;2022-08-19T07:50:55;11.00;;;7.00;;
67372;SDS011;54257;54.496;18.412;2022-08-19T07:53:47;15.80;;;7.80;;
67372;SDS011;54257;54.496;18.412;2022-08-19T07:56:38;17.00;;;7.80;;
67372;SDS011;54257;54.496;18.412;2022-08-19T07:59:26;8.30;;;7.50;;
67372;SDS011;54257;54.496;18.412;2022-08-19T08:02:16;9.10;;;7.60;;
67372;SDS011;54257;54.496;18.412;2022-08-19T08:05:05;7.90;;;7.20;;
67372;SDS011;54257;54.496;18.412;2022-08-19T08:08:12;8.60;;;7.20;;
67372;SDS011;54257;54.496;18.412;2022-08-19T08:11:19;10.30;;;7.20;;
67372;SDS011;54257;54.496;18.412;2022-08-19T08:14:08;12.10;;;7.30;;
67372;SDS011;54257;54.496;18.412;2022-08-19T08:16:57;10.30;;;7.00;;
67372;SDS011;54257;54.496;18.412;2022-08-19T08:19:46;12.60;;;7.40;;
67372;SDS011;54257;54.496;18.412;2022-08-19T08:22:42;13.90;;;7.70;;
67372;SDS011;54257;54.496;18.412;2022-08-19T08:25:49;8.60;;;7.20;;
67372;SDS011;54257;54.496;18.412;2022-08-19T08:28:37;9.50;;;6.90;;
67372;SDS011;54257;54.496;18.412;2022-08-19T08:31:26;7.60;;;6.80;;
67372;SDS011;54257;54.496;18.412;2022-08-19T08:34:15;10.50;;;7.00;;
67372;SDS011;54257;54.496;18.412;2022-08-19T08:37:03;8.80;;;7.70;;
67372;SDS011;54257;54.496;18.412;2022-08-19T08:39:52;9.20;;;7.20;;
67372;SDS011;54257;54.496;18.412;2022-08-19T08:42:43;8.50;;;7.70;;
67372;SDS011;54257;54.496;18.412;2022-08-19T08:45:44;7.50;;;6.80;;
67372;SDS011;54257;54.496;18.412;2022-08-19T08:48:47;9.00;;;7.60;;
67372;SDS011;54257;54.496;18.412;2022-08-19T08:51:47;8.30;;;7.60;;
67372;SDS011;54257;54.496;18.412;2022-08-19T08:54:40;7.30;;;6.60;;
67372;SDS011;54257;54.496;18.412;2022-08-19T08:57:39;8.50;;;7.20;;
67372;SDS011;54257;54.496;18.412;2022-08-19T09:00:43;10.80;;;7.70;;
67372;SDS011;54257;54.496;18.412;2022-08-19T09:03:32;8.70;;;7.90;;
67372;SDS011;54257;54.496;18.412;2022-08-19T09:09:32;12.90;;;9.20;;
67372;SDS011;54257;54.496;18.412;2022-08-19T09:15:37;10.20;;;8.60;;
67372;SDS011;54257;54.496;18.412;2022-08-19T09:18:39;11.70;;;8.70;;
67372;SDS011;54257;54.496;18.412;2022-08-19T09:21:29;12.50;;;8.70;;
67372;SDS011;54257;54.496;18.412;2022-08-19T09:24:18;15.30;;;9.40;;
67372;SDS011;54257;54.496;18.412;2022-08-19T09:27:07;13.40;;;9.10;;
67372;SDS011;54257;54.496;18.412;2022-08-19T09:29:55;12.50;;;9.00;;
67372;SDS011;54257;54.496;18.412;2022-08-19T09:32:43;13.80;;;7.70;;
67372;SDS011;54257;54.496;18.412;2022-08-19T09:35:33;17.10;;;9.50;;
67372;SDS011;54257;54.496;18.412;2022-08-19T09:38:23;11.30;;;8.40;;
67372;SDS011;54257;54.496;18.412;2022-08-19T09:41:13;9.80;;;7.80;;
67372;SDS011;54257;54.496;18.412;2022-08-19T09:44:04;7.90;;;7.20;;
67372;SDS011;54257;54.496;18.412;2022-08-19T09:46:52;12.50;;;8.30;;
67372;SDS011;54257;54.496;18.412;2022-08-19T09:49:40;8.00;;;7.10;;
67372;SDS011;54257;54.496;18.412;2022-08-19T09:52:30;11.20;;;8.00;;
67372;SDS011;54257;54.496;18.412;2022-08-19T09:55:18;11.80;;;7.30;;
67372;SDS011;54257;54.496;18.412;2022-08-19T09:58:07;8.20;;;7.30;;
67372;SDS011;54257;54.496;18.412;2022-08-19T10:00:56;8.80;;;7.60;;
67372;SDS011;54257;54.496;18.412;2022-08-19T10:03:47;7.50;;;6.80;;
67372;SDS011;54257;54.496;18.412;2022-08-19T10:06:38;9.70;;;7.10;;
67372;SDS011;54257;54.496;18.412;2022-08-19T10:09:29;10.60;;;7.70;;
67372;SDS011;54257;54.496;18.412;2022-08-19T10:12:18;9.40;;;7.10;;
67372;SDS011;54257;54.496;18.412;2022-08-19T10:15:06;12.10;;;7.30;;
67372;SDS011;54257;54.496;18.412;2022-08-19T10:17:57;10.80;;;7.50;;
67372;SDS011;54257;54.496;18.412;2022-08-19T10:20:47;10.70;;;6.20;;
67372;SDS011;54257;54.496;18.412;2022-08-19T10:23:38;8.30;;;7.20;;
67372;SDS011;54257;54.496;18.412;2022-08-19T10:26:28;12.00;;;6.60;;
67372;SDS011;54257;54.496;18.412;2022-08-19T10:29:20;10.50;;;7.20;;
67372;SDS011;54257;54.496;18.412;2022-08-19T10:32:08;10.00;;;7.30;;
67372;SDS011;54257;54.496;18.412;2022-08-19T10:34:57;7.60;;;6.70;;
67372;SDS011;54257;54.496;18.412;2022-08-19T10:37:46;6.90;;;6.20;;
67372;SDS011;54257;54.496;18.412;2022-08-19T10:40:34;9.10;;;7.10;;
67372;SDS011;54257;54.496;18.412;2022-08-19T10:43:22;8.30;;;7.30;;
67372;SDS011;54257;54.496;18.412;2022-08-19T10:46:13;8.90;;;6.80;;
67372;SDS011;54257;54.496;18.412;2022-08-19T10:49:03;9.40;;;6.80;;
67372;SDS011;54257;54.496;18.412;2022-08-19T10:51:53;10.30;;;7.10;;
67372;SDS011;54257;54.496;18.412;2022-08-19T10:55:00;10.70;;;6.70;;
67372;SDS011;54257;54.496;18.412;2022-08-19T10:58:15;8.20;;;6.20;;
67372;SDS011;54257;54.496;18.412;2022-08-19T11:01:11;8.40;;;7.20;;
67372;SDS011;54257;54.496;18.412;2022-08-19T11:04:00;11.10;;;6.90;;
67372;SDS011;54257;54.496;18.412;2022-08-19T11:06:50;8.30;;;6.50;;
67372;SDS011;54257;54.496;18.412;2022-08-19T11:09:39;8.40;;;6.50;;
67372;SDS011;54257;54.496;18.412;2022-08-19T11:12:31;12.90;;;8.20;;
67372;SDS011;54257;54.496;18.412;2022-08-19T11:15:21;8.20;;;6.60;;
67372;SDS011;54257;54.496;18.412;2022-08-19T11:18:09;7.80;;;6.90;;
67372;SDS011;54257;54.496;18.412;2022-08-19T11:21:32;12.50;;;6.70;;
67372;SDS011;54257;54.496;18.412;2022-08-19T11:24:19;9.90;;;6.70;;
67372;SDS011;54257;54.496;18.412;2022-08-19T11:27:10;9.80;;;6.40;;
67372;SDS011;54257;54.496;18.412;2022-08-19T11:29:59;7.80;;;5.90;;
67372;SDS011;54257;54.496;18.412;2022-08-19T11:32:48;8.70;;;6.70;;
67372;SDS011;54257;54.496;18.412;2022-08-19T11:35:38;7.10;;;5.80;;
67372;SDS011;54257;54.496;18.412;2022-08-19T11:38:28;9.20;;;6.40;;
67372;SDS011;54257;54.496;18.412;2022-08-19T11:41:18;10.50;;;6.00;;
67372;SDS011;54257;54.496;18.412;2022-08-19T11:44:08;8.10;;;5.80;;
67372;SDS011;54257;54.496;18.412;2022-08-19T11:46:57;9.10;;;6.40;;
67372;SDS011;54257;54.496;18.412;2022-08-19T11:49:48;9.20;;;6.80;;
67372;SDS011;54257;54.496;18.412;2022-08-19T11:52:36;10.60;;;6.70;;
67372;SDS011;54257;54.496;18.412;2022-08-19T11:55:25;7.60;;;6.40;;
67372;SDS011;54257;54.496;18.412;2022-08-19T11:58:16;8.20;;;7.00;;
67372;SDS011;54257;54.496;18.412;2022-08-19T12:01:06;10.90;;;7.90;;
67372;SDS011;54257;54.496;18.412;2022-08-19T12:03:58;12.90;;;7.40;;
67372;SDS011;54257;54.496;18.412;2022-08-19T12:06:47;8.10;;;6.80;;
67372;SDS011;54257;54.496;18.412;2022-08-19T12:09:37;9.00;;;7.00;;
67372;SDS011;54257;54.496;18.412;2022-08-19T12:12:26;14.60;;;7.00;;
67372;SDS011;54257;54.496;18.412;2022-08-19T12:15:15;9.70;;;6.80;;
67372;SDS011;54257;54.496;18.412;2022-08-19T12:18:04;12.40;;;7.80;;
67372;SDS011;54257;54.496;18.412;2022-08-19T12:20:53;7.80;;;7.00;;
67372;SDS011;54257;54.496;18.412;2022-08-19T12:23:42;8.30;;;6.30;;
67372;SDS011;54257;54.496;18.412;2022-08-19T12:26:33;9.90;;;6.50;;
67372;SDS011;54257;54.496;18.412;2022-08-19T12:29:22;9.10;;;7.70;;
67372;SDS011;54257;54.496;18.412;2022-08-19T12:32:16;9.10;;;6.60;;
67372;SDS011;54257;54.496;18.412;2022-08-19T12:35:05;8.50;;;7.60;;
67372;SDS011;54257;54.496;18.412;2022-08-19T12:37:56;7.60;;;6.90;;
67372;SDS011;54257;54.496;18.412;2022-08-19T12:40:45;11.10;;;7.30;;
67372;SDS011;54257;54.496;18.412;2022-08-19T12:43:35;8.50;;;7.00;;
67372;SDS011;54257;54.496;18.412;2022-08-19T12:46:25;9.50;;;7.10;;
67372;SDS011;54257;54.496;18.412;2022-08-19T12:49:13;8.40;;;7.30;;
67372;SDS011;54257;54.496;18.412;2022-08-19T12:52:05;9.30;;;6.60;;
67372;SDS011;54257;54.496;18.412;2022-08-19T12:54:56;12.90;;;7.20;;
67372;SDS011;54257;54.496;18.412;2022-08-19T12:57:45;11.90;;;7.10;;
67372;SDS011;54257;54.496;18.412;2022-08-19T13:00:35;8.90;;;6.80;;
67372;SDS011;54257;54.496;18.412;2022-08-19T13:03:23;10.20;;;7.00;;
67372;SDS011;54257;54.496;18.412;2022-08-19T13:06:16;7.70;;;6.60;;
67372;SDS011;54257;54.496;18.412;2022-08-19T13:09:05;12.80;;;7.10;;
67372;SDS011;54257;54.496;18.412;2022-08-19T13:11:56;9.20;;;6.60;;
67372;SDS011;54257;54.496;18.412;2022-08-19T13:14:44;9.20;;;7.30;;
67372;SDS011;54257;54.496;18.412;2022-08-19T13:17:38;8.50;;;7.00;;
67372;SDS011;54257;54.496;18.412;2022-08-19T13:20:27;7.90;;;6.90;;
67372;SDS011;54257;54.496;18.412;2022-08-19T13:23:17;7.90;;;6.90;;
67372;SDS011;54257;54.496;18.412;2022-08-19T13:26:06;10.00;;;7.30;;
67372;SDS011;54257;54.496;18.412;2022-08-19T13:28:56;11.30;;;7.50;;
67372;SDS011;54257;54.496;18.412;2022-08-19T13:32:03;7.90;;;6.90;;
67372;SDS011;54257;54.496;18.412;2022-08-19T13:35:12;8.40;;;6.70;;
67372;SDS011;54257;54.496;18.412;2022-08-19T13:38:01;11.30;;;7.30;;
67372;SDS011;54257;54.496;18.412;2022-08-19T13:40:52;11.20;;;6.70;;
67372;SDS011;54257;54.496;18.412;2022-08-19T13:43:43;8.40;;;7.10;;
67372;SDS011;54257;54.496;18.412;2022-08-19T13:46:32;8.20;;;6.90;;
67372;SDS011;54257;54.496;18.412;2022-08-19T13:49:20;10.30;;;6.50;;
67372;SDS011;54257;54.496;18.412;2022-08-19T13:59:34;8.00;;;7.00;;
67372;SDS011;54257;54.496;18.412;2022-08-19T14:02:22;8.70;;;7.10;;
67372;SDS011;54257;54.496;18.412;2022-08-19T14:05:11;8.20;;;6.40;;
67372;SDS011;54257;54.496;18.412;2022-08-19T14:10:51;11.00;;;7.50;;
67372;SDS011;54257;54.496;18.412;2022-08-19T14:13:41;11.60;;;7.20;;
67372;SDS011;54257;54.496;18.412;2022-08-19T14:16:29;10.60;;;6.90;;
67372;SDS011;54257;54.496;18.412;2022-08-19T14:19:18;9.00;;;7.10;;
67372;SDS011;54257;54.496;18.412;2022-08-19T14:22:08;9.00;;;6.50;;
67372;SDS011;54257;54.496;18.412;2022-08-19T14:24:57;7.20;;;6.20;;
67372;SDS011;54257;54.496;18.412;2022-08-19T14:27:46;10.50;;;6.50;;
67372;SDS011;54257;54.496;18.412;2022-08-19T14:30:36;8.70;;;5.90;;
67372;SDS011;54257;54.496;18.412;2022-08-19T14:33:25;11.10;;;6.30;;
67372;SDS011;54257;54.496;18.412;2022-08-19T14:36:14;10.60;;;6.60;;
67372;SDS011;54257;54.496;18.412;2022-08-19T14:39:02;8.60;;;6.90;;
67372;SDS011;54257;54.496;18.412;2022-08-19T14:41:51;9.20;;;6.80;;
67372;SDS011;54257;54.496;18.412;2022-08-19T14:44:40;7.70;;;6.60;;
67372;SDS011;54257;54.496;18.412;2022-08-19T14:47:29;8.30;;;6.70;;
67372;SDS011;54257;54.496;18.412;2022-08-19T14:50:18;9.00;;;6.60;;
67372;SDS011;54257;54.496;18.412;2022-08-19T14:53:08;11.70;;;6.40;;
67372;SDS011;54257;54.496;18.412;2022-08-19T14:55:56;7.80;;;6.20;;
67372;SDS011;54257;54.496;18.412;2022-08-19T14:58:45;9.40;;;6.40;;
67372;SDS011;54257;54.496;18.412;2022-08-19T15:01:34;11.50;;;6.70;;
67372;SDS011;54257;54.496;18.412;2022-08-19T15:04:23;9.80;;;6.60;;
67372;SDS011;54257;54.496;18.412;2022-08-19T15:07:11;9.70;;;6.20;;
67372;SDS011;54257;54.496;18.412;2022-08-19T15:10:00;12.30;;;9.10;;
67372;SDS011;54257;54.496;18.412;2022-08-19T15:12:49;8.90;;;6.40;;
67372;SDS011;54257;54.496;18.412;2022-08-19T15:15:37;11.50;;;6.70;;
67372;SDS011;54257;54.496;18.412;2022-08-19T15:18:27;9.10;;;6.90;;
67372;SDS011;54257;54.496;18.412;2022-08-19T15:21:15;7.60;;;6.60;;
67372;SDS011;54257;54.496;18.412;2022-08-19T15:24:05;7.20;;;6.00;;
67372;SDS011;54257;54.496;18.412;2022-08-19T15:26:54;7.70;;;6.80;;
67372;SDS011;54257;54.496;18.412;2022-08-19T15:29:43;9.10;;;6.20;;
67372;SDS011;54257;54.496;18.412;2022-08-19T15:32:33;7.20;;;6.30;;
67372;SDS011;54257;54.496;18.412;2022-08-19T15:35:22;10.10;;;6.60;;
67372;SDS011;54257;54.496;18.412;2022-08-19T15:38:12;10.20;;;6.10;;
67372;SDS011;54257;54.496;18.412;2022-08-19T15:41:02;8.70;;;7.10;;
67372;SDS011;54257;54.496;18.412;2022-08-19T15:44:14;7.60;;;6.70;;
67372;SDS011;54257;54.496;18.412;2022-08-19T15:47:05;11.30;;;6.60;;
67372;SDS011;54257;54.496;18.412;2022-08-19T15:49:53;8.70;;;6.30;;
67372;SDS011;54257;54.496;18.412;2022-08-19T15:52:50;7.40;;;6.70;;
67372;SDS011;54257;54.496;18.412;2022-08-19T15:55:44;11.40;;;7.00;;
67372;SDS011;54257;54.496;18.412;2022-08-19T15:58:33;9.90;;;6.20;;
67372;SDS011;54257;54.496;18.412;2022-08-19T16:01:41;8.80;;;7.20;;
67372;SDS011;54257;54.496;18.412;2022-08-19T16:04:52;7.50;;;6.50;;
67372;SDS011;54257;54.496;18.412;2022-08-19T16:07:59;7.20;;;6.50;;
67372;SDS011;54257;54.496;18.412;2022-08-19T16:10:49;10.50;;;7.00;;